sensor_id;sensor_type;location;lat;lon;timestamp;P1;durP1;ratioP1;P2;durP2;ratioP2
11957;SDS011;6039;52.576;13.348;2023-02-01T00:01:46;9.97;;;1.47;;
11957;SDS011;6039;52.576;13.348;2023-02-01T00:06:50;7.07;;;1.40;;
11957;SDS011;6039;52.576;13.348;2023-02-01T00:11:56;6.10;;;2.07;;
11957;SDS011;6039;52.576;13.348;2023-02-01T00:17:02;6.50;;;1.60;;
11957;SDS011;6039;52.576;13.348;2023-02-01T00:22:07;4.90;;;1.27;;
11957;SDS011;6039;52.576;13.348;2023-02-01T00:27:13;3.43;;;1.30;;
11957;SDS011;6039;52.576;13.348;2023-02-01T00:32:20;10.37;;;1.90;;
11957;SDS011;6039;52.576;13.348;2023-02-01T00:37:24;11.87;;;3.20;;
11957;SDS011;6039;52.576;13.348;2023-02-01T00:42:30;3.33;;;1.13;;
11957;SDS011;6039;52.576;13.348;2023-02-01T00:47:34;3.17;;;0.83;;
11957;SDS011;6039;52.576;13.348;2023-02-01T00:52:38;7.47;;;1.57;;
11957;SDS011;6039;52.576;13.348;2023-02-01T00:57:45;4.30;;;1.30;;
11957;SDS011;6039;52.576;13.348;2023-02-01T01:02:49;4.60;;;1.30;;
11957;SDS011;6039;52.576;13.348;2023-02-01T01:07:53;1.87;;;1.07;;
11957;SDS011;6039;52.576;13.348;2023-02-01T01:12:59;7.90;;;1.20;;
11957;SDS011;6039;52.576;13.348;2023-02-01T01:18:03;8.83;;;1.50;;
11957;SDS011;6039;52.576;13.348;2023-02-01T01:23:08;4.83;;;1.37;;
11957;SDS011;6039;52.576;13.348;2023-02-01T01:28:15;5.67;;;1.40;;
11957;SDS011;6039;52.576;13.348;2023-02-01T01:33:19;9.70;;;1.67;;
11957;SDS011;6039;52.576;13.348;2023-02-01T01:38:23;5.93;;;1.60;;
11957;SDS011;6039;52.576;13.348;2023-02-01T01:48:57;5.43;;;1.40;;
11957;SDS011;6039;52.576;13.348;2023-02-01T01:54:07;1.70;;;0.83;;
11957;SDS011;6039;52.576;13.348;2023-02-01T01:59:18;6.73;;;1.43;;
11957;SDS011;6039;52.576;13.348;2023-02-01T02:04:23;11.73;;;1.60;;
11957;SDS011;6039;52.576;13.348;2023-02-01T02:09:27;4.00;;;1.50;;
11957;SDS011;6039;52.576;13.348;2023-02-01T02:14:34;5.27;;;1.50;;
11957;SDS011;6039;52.576;13.348;2023-02-01T02:25:24;5.30;;;1.20;;
11957;SDS011;6039;52.576;13.348;2023-02-01T02:36:10;6.70;;;1.50;;
11957;SDS011;6039;52.576;13.348;2023-02-01T02:41:19;4.67;;;1.33;;
11957;SDS011;6039;52.576;13.348;2023-02-01T02:46:40;3.70;;;1.10;;
11957;SDS011;6039;52.576;13.348;2023-02-01T02:52:04;2.77;;;1.37;;
11957;SDS011;6039;52.576;13.348;2023-02-01T02:57:25;5.33;;;1.30;;
11957;SDS011;6039;52.576;13.348;2023-02-01T03:02:43;4.63;;;1.40;;
11957;SDS011;6039;52.576;13.348;2023-02-01T03:08:08;5.47;;;1.33;;
11957;SDS011;6039;52.576;13.348;2023-02-01T03:13:15;5.97;;;1.70;;
11957;SDS011;6039;52.576;13.348;2023-02-01T03:18:24;5.97;;;1.30;;
11957;SDS011;6039;52.576;13.348;2023-02-01T03:23:36;5.57;;;1.47;;
11957;SDS011;6039;52.576;13.348;2023-02-01T03:28:41;7.40;;;1.47;;
11957;SDS011;6039;52.576;13.348;2023-02-01T03:33:47;5.63;;;1.80;;
11957;SDS011;6039;52.576;13.348;2023-02-01T03:38:55;8.30;;;2.00;;
11957;SDS011;6039;52.576;13.348;2023-02-01T03:44:06;13.00;;;2.27;;
11957;SDS011;6039;52.576;13.348;2023-02-01T03:49:17;6.23;;;1.60;;
11957;SDS011;6039;52.576;13.348;2023-02-01T03:54:27;6.57;;;1.83;;
11957;SDS011;6039;52.576;13.348;2023-02-01T03:59:31;8.30;;;1.47;;
11957;SDS011;6039;52.576;13.348;2023-02-01T04:04:37;7.07;;;1.50;;
11957;SDS011;6039;52.576;13.348;2023-02-01T04:09:43;7.33;;;1.47;;
11957;SDS011;6039;52.576;13.348;2023-02-01T04:14:47;7.13;;;1.40;;
11957;SDS011;6039;52.576;13.348;2023-02-01T04:19:51;5.33;;;1.70;;
11957;SDS011;6039;52.576;13.348;2023-02-01T04:24:58;4.47;;;1.33;;
11957;SDS011;6039;52.576;13.348;2023-02-01T04:30:02;2.73;;;1.17;;
11957;SDS011;6039;52.576;13.348;2023-02-01T04:35:09;6.27;;;1.30;;
11957;SDS011;6039;52.576;13.348;2023-02-01T04:40:16;6.73;;;1.47;;
11957;SDS011;6039;52.576;13.348;2023-02-01T04:45:20;2.87;;;1.47;;
11957;SDS011;6039;52.576;13.348;2023-02-01T04:50:24;9.87;;;1.90;;
11957;SDS011;6039;52.576;13.348;2023-02-01T04:55:30;7.07;;;1.37;;
11957;SDS011;6039;52.576;13.348;2023-02-01T05:00:34;8.53;;;1.80;;
11957;SDS011;6039;52.576;13.348;2023-02-01T05:05:38;6.97;;;1.40;;
11957;SDS011;6039;52.576;13.348;2023-02-01T05:10:45;7.03;;;1.40;;
11957;SDS011;6039;52.576;13.348;2023-02-01T05:15:49;7.50;;;1.40;;
11957;SDS011;6039;52.576;13.348;2023-02-01T05:20:53;3.57;;;1.57;;
11957;SDS011;6039;52.576;13.348;2023-02-01T05:26:00;4.13;;;1.50;;
11957;SDS011;6039;52.576;13.348;2023-02-01T05:31:08;4.13;;;1.60;;
11957;SDS011;6039;52.576;13.348;2023-02-01T05:36:12;6.90;;;1.60;;
11957;SDS011;6039;52.576;13.348;2023-02-01T05:41:19;6.30;;;1.70;;
11957;SDS011;6039;52.576;13.348;2023-02-01T05:46:23;4.53;;;1.40;;
11957;SDS011;6039;52.576;13.348;2023-02-01T05:51:27;7.57;;;1.97;;
11957;SDS011;6039;52.576;13.348;2023-02-01T05:56:34;3.23;;;1.20;;
11957;SDS011;6039;52.576;13.348;2023-02-01T06:01:38;9.20;;;2.23;;
11957;SDS011;6039;52.576;13.348;2023-02-01T06:06:41;13.97;;;1.70;;
11957;SDS011;6039;52.576;13.348;2023-02-01T06:11:48;6.13;;;2.03;;
11957;SDS011;6039;52.576;13.348;2023-02-01T06:16:52;6.47;;;2.07;;
11957;SDS011;6039;52.576;13.348;2023-02-01T06:21:56;5.30;;;1.43;;
11957;SDS011;6039;52.576;13.348;2023-02-01T06:27:02;7.83;;;1.70;;
11957;SDS011;6039;52.576;13.348;2023-02-01T06:32:06;6.20;;;1.70;;
11957;SDS011;6039;52.576;13.348;2023-02-01T06:37:10;7.00;;;1.60;;
11957;SDS011;6039;52.576;13.348;2023-02-01T06:42:17;6.43;;;1.60;;
11957;SDS011;6039;52.576;13.348;2023-02-01T06:47:21;7.97;;;1.63;;
11957;SDS011;6039;52.576;13.348;2023-02-01T06:52:25;8.30;;;1.87;;
11957;SDS011;6039;52.576;13.348;2023-02-01T06:57:32;5.77;;;1.60;;
11957;SDS011;6039;52.576;13.348;2023-02-01T07:02:35;5.17;;;2.00;;
11957;SDS011;6039;52.576;13.348;2023-02-01T07:07:40;9.00;;;1.83;;
11957;SDS011;6039;52.576;13.348;2023-02-01T07:12:46;6.87;;;1.80;;
11957;SDS011;6039;52.576;13.348;2023-02-01T07:17:50;5.87;;;1.80;;
11957;SDS011;6039;52.576;13.348;2023-02-01T07:22:56;6.60;;;1.97;;
11957;SDS011;6039;52.576;13.348;2023-02-01T07:28:03;5.53;;;1.93;;
11957;SDS011;6039;52.576;13.348;2023-02-01T07:33:07;10.03;;;1.77;;
11957;SDS011;6039;52.576;13.348;2023-02-01T07:38:11;4.47;;;1.70;;
11957;SDS011;6039;52.576;13.348;2023-02-01T07:43:17;4.60;;;1.90;;
11957;SDS011;6039;52.576;13.348;2023-02-01T07:48:22;6.73;;;1.50;;
11957;SDS011;6039;52.576;13.348;2023-02-01T07:53:26;5.73;;;1.70;;
11957;SDS011;6039;52.576;13.348;2023-02-01T07:58:33;9.23;;;1.70;;
11957;SDS011;6039;52.576;13.348;2023-02-01T08:03:37;10.57;;;2.17;;
11957;SDS011;6039;52.576;13.348;2023-02-01T08:08:41;6.17;;;2.20;;
11957;SDS011;6039;52.576;13.348;2023-02-01T08:13:49;4.57;;;1.80;;
11957;SDS011;6039;52.576;13.348;2023-02-01T08:18:53;6.30;;;1.90;;
11957;SDS011;6039;52.576;13.348;2023-02-01T08:23:58;6.03;;;1.63;;
11957;SDS011;6039;52.576;13.348;2023-02-01T08:29:05;2.80;;;1.97;;
11957;SDS011;6039;52.576;13.348;2023-02-01T08:34:10;4.00;;;1.60;;
11957;SDS011;6039;52.576;13.348;2023-02-01T08:39:14;6.63;;;1.67;;
11957;SDS011;6039;52.576;13.348;2023-02-01T08:44:21;2.47;;;1.40;;
11957;SDS011;6039;52.576;13.348;2023-02-01T08:49:25;3.97;;;1.67;;
11957;SDS011;6039;52.576;13.348;2023-02-01T08:54:29;1.90;;;1.27;;
11957;SDS011;6039;52.576;13.348;2023-02-01T08:59:35;2.80;;;1.47;;
11957;SDS011;6039;52.576;13.348;2023-02-01T09:04:39;3.20;;;1.30;;
11957;SDS011;6039;52.576;13.348;2023-02-01T09:09:44;3.53;;;1.43;;
11957;SDS011;6039;52.576;13.348;2023-02-01T09:14:50;4.00;;;1.17;;
11957;SDS011;6039;52.576;13.348;2023-02-01T09:19:54;2.63;;;1.30;;
11957;SDS011;6039;52.576;13.348;2023-02-01T09:24:58;1.40;;;1.07;;
11957;SDS011;6039;52.576;13.348;2023-02-01T09:30:05;1.60;;;1.17;;
11957;SDS011;6039;52.576;13.348;2023-02-01T09:35:11;2.93;;;1.30;;
11957;SDS011;6039;52.576;13.348;2023-02-01T09:40:15;1.63;;;0.80;;
11957;SDS011;6039;52.576;13.348;2023-02-01T09:45:25;1.10;;;0.87;;
11957;SDS011;6039;52.576;13.348;2023-02-01T09:50:35;1.33;;;0.90;;
11957;SDS011;6039;52.576;13.348;2023-02-01T09:55:41;1.73;;;0.80;;
11957;SDS011;6039;52.576;13.348;2023-02-01T10:00:50;2.03;;;0.60;;
11957;SDS011;6039;52.576;13.348;2023-02-01T10:06:10;1.23;;;0.87;;
11957;SDS011;6039;52.576;13.348;2023-02-01T10:11:39;1.07;;;0.70;;
11957;SDS011;6039;52.576;13.348;2023-02-01T10:16:58;5.87;;;0.80;;
11957;SDS011;6039;52.576;13.348;2023-02-01T10:22:14;2.07;;;0.87;;
11957;SDS011;6039;52.576;13.348;2023-02-01T10:27:27;2.60;;;0.90;;
11957;SDS011;6039;52.576;13.348;2023-02-01T10:32:36;3.23;;;1.20;;
11957;SDS011;6039;52.576;13.348;2023-02-01T10:37:42;1.73;;;0.97;;
11957;SDS011;6039;52.576;13.348;2023-02-01T10:42:47;1.80;;;0.73;;
11957;SDS011;6039;52.576;13.348;2023-02-01T10:47:56;3.87;;;0.90;;
11957;SDS011;6039;52.576;13.348;2023-02-01T10:53:02;3.10;;;0.80;;
11957;SDS011;6039;52.576;13.348;2023-02-01T10:58:14;2.33;;;0.80;;
11957;SDS011;6039;52.576;13.348;2023-02-01T11:08:47;2.20;;;0.87;;
11957;SDS011;6039;52.576;13.348;2023-02-01T11:13:56;2.87;;;1.07;;
11957;SDS011;6039;52.576;13.348;2023-02-01T11:19:04;1.90;;;1.10;;
11957;SDS011;6039;52.576;13.348;2023-02-01T11:24:11;3.63;;;1.10;;
11957;SDS011;6039;52.576;13.348;2023-02-01T11:29:22;3.73;;;1.90;;
11957;SDS011;6039;52.576;13.348;2023-02-01T11:34:35;4.07;;;1.27;;
11957;SDS011;6039;52.576;13.348;2023-02-01T11:39:41;2.00;;;0.90;;
11957;SDS011;6039;52.576;13.348;2023-02-01T11:44:45;1.77;;;0.97;;
11957;SDS011;6039;52.576;13.348;2023-02-01T11:49:53;2.93;;;1.13;;
11957;SDS011;6039;52.576;13.348;2023-02-01T11:55:01;1.87;;;1.10;;
11957;SDS011;6039;52.576;13.348;2023-02-01T12:00:16;1.70;;;1.13;;
11957;SDS011;6039;52.576;13.348;2023-02-01T12:05:32;3.03;;;1.30;;
11957;SDS011;6039;52.576;13.348;2023-02-01T12:10:44;6.73;;;1.47;;
11957;SDS011;6039;52.576;13.348;2023-02-01T12:15:56;2.20;;;1.27;;
11957;SDS011;6039;52.576;13.348;2023-02-01T12:21:10;4.30;;;1.30;;
11957;SDS011;6039;52.576;13.348;2023-02-01T12:26:35;2.17;;;0.90;;
11957;SDS011;6039;52.576;13.348;2023-02-01T12:31:57;3.00;;;1.30;;
11957;SDS011;6039;52.576;13.348;2023-02-01T12:37:22;4.67;;;1.10;;
11957;SDS011;6039;52.576;13.348;2023-02-01T12:42:31;2.40;;;1.20;;
11957;SDS011;6039;52.576;13.348;2023-02-01T12:47:38;5.87;;;1.23;;
11957;SDS011;6039;52.576;13.348;2023-02-01T12:52:47;3.80;;;1.40;;
11957;SDS011;6039;52.576;13.348;2023-02-01T12:57:53;2.43;;;1.00;;
11957;SDS011;6039;52.576;13.348;2023-02-01T13:03:00;2.50;;;1.10;;
11957;SDS011;6039;52.576;13.348;2023-02-01T13:08:09;2.60;;;1.20;;
11957;SDS011;6039;52.576;13.348;2023-02-01T13:13:16;1.63;;;0.80;;
11957;SDS011;6039;52.576;13.348;2023-02-01T13:18:24;0.90;;;0.60;;
11957;SDS011;6039;52.576;13.348;2023-02-01T13:23:33;2.90;;;0.97;;
11957;SDS011;6039;52.576;13.348;2023-02-01T13:28:40;2.97;;;0.70;;
11957;SDS011;6039;52.576;13.348;2023-02-01T13:33:51;1.67;;;0.80;;
11957;SDS011;6039;52.576;13.348;2023-02-01T13:39:18;2.17;;;1.17;;
11957;SDS011;6039;52.576;13.348;2023-02-01T13:44:37;3.00;;;1.20;;
11957;SDS011;6039;52.576;13.348;2023-02-01T13:49:43;5.03;;;1.30;;
11957;SDS011;6039;52.576;13.348;2023-02-01T13:54:49;1.87;;;1.20;;
11957;SDS011;6039;52.576;13.348;2023-02-01T14:00:06;2.80;;;1.17;;
11957;SDS011;6039;52.576;13.348;2023-02-01T14:05:12;3.30;;;1.20;;
11957;SDS011;6039;52.576;13.348;2023-02-01T14:10:49;5.13;;;1.50;;
11957;SDS011;6039;52.576;13.348;2023-02-01T14:21:17;4.70;;;1.07;;
11957;SDS011;6039;52.576;13.348;2023-02-01T14:26:26;5.70;;;1.50;;
11957;SDS011;6039;52.576;13.348;2023-02-01T14:31:44;6.33;;;1.37;;
11957;SDS011;6039;52.576;13.348;2023-02-01T14:36:55;6.67;;;1.90;;
11957;SDS011;6039;52.576;13.348;2023-02-01T14:42:04;5.80;;;1.60;;
11957;SDS011;6039;52.576;13.348;2023-02-01T14:47:27;5.43;;;2.10;;
11957;SDS011;6039;52.576;13.348;2023-02-01T14:52:33;2.80;;;1.40;;
11957;SDS011;6039;52.576;13.348;2023-02-01T14:57:46;6.07;;;1.77;;
11957;SDS011;6039;52.576;13.348;2023-02-01T15:02:51;4.57;;;1.50;;
11957;SDS011;6039;52.576;13.348;2023-02-01T15:07:57;9.60;;;1.67;;
11957;SDS011;6039;52.576;13.348;2023-02-01T15:13:10;3.13;;;1.10;;
11957;SDS011;6039;52.576;13.348;2023-02-01T15:18:23;1.57;;;0.87;;
11957;SDS011;6039;52.576;13.348;2023-02-01T15:23:27;2.50;;;1.00;;
11957;SDS011;6039;52.576;13.348;2023-02-01T15:28:34;2.13;;;1.27;;
11957;SDS011;6039;52.576;13.348;2023-02-01T15:33:39;1.63;;;1.03;;
11957;SDS011;6039;52.576;13.348;2023-02-01T15:38:43;1.40;;;0.70;;
11957;SDS011;6039;52.576;13.348;2023-02-01T15:49:19;1.77;;;1.00;;
11957;SDS011;6039;52.576;13.348;2023-02-01T15:54:27;0.53;;;0.53;;
11957;SDS011;6039;52.576;13.348;2023-02-01T15:59:37;0.50;;;0.50;;
11957;SDS011;6039;52.576;13.348;2023-02-01T16:04:46;0.83;;;0.60;;
11957;SDS011;6039;52.576;13.348;2023-02-01T16:09:52;2.83;;;0.63;;
11957;SDS011;6039;52.576;13.348;2023-02-01T16:15:00;0.40;;;0.40;;
11957;SDS011;6039;52.576;13.348;2023-02-01T16:20:04;1.27;;;0.57;;
11957;SDS011;6039;52.576;13.348;2023-02-01T16:25:09;0.53;;;0.53;;
11957;SDS011;6039;52.576;13.348;2023-02-01T16:30:16;0.87;;;0.40;;
11957;SDS011;6039;52.576;13.348;2023-02-01T16:35:23;0.60;;;0.40;;
11957;SDS011;6039;52.576;13.348;2023-02-01T16:40:32;1.93;;;0.50;;
11957;SDS011;6039;52.576;13.348;2023-02-01T16:45:39;0.50;;;0.50;;
11957;SDS011;6039;52.576;13.348;2023-02-01T16:50:43;1.80;;;0.50;;
11957;SDS011;6039;52.576;13.348;2023-02-01T16:55:49;0.50;;;0.50;;
11957;SDS011;6039;52.576;13.348;2023-02-01T17:00:56;0.97;;;0.50;;
11957;SDS011;6039;52.576;13.348;2023-02-01T17:06:00;0.20;;;0.20;;
11957;SDS011;6039;52.576;13.348;2023-02-01T17:11:05;0.63;;;0.47;;
11957;SDS011;6039;52.576;13.348;2023-02-01T17:16:15;1.13;;;0.70;;
11957;SDS011;6039;52.576;13.348;2023-02-01T17:21:24;0.60;;;0.53;;
11957;SDS011;6039;52.576;13.348;2023-02-01T17:26:29;1.20;;;0.60;;
11957;SDS011;6039;52.576;13.348;2023-02-01T17:31:36;5.90;;;1.00;;
11957;SDS011;6039;52.576;13.348;2023-02-01T17:36:41;1.13;;;0.83;;
11957;SDS011;6039;52.576;13.348;2023-02-01T17:41:46;0.80;;;0.60;;
11957;SDS011;6039;52.576;13.348;2023-02-01T17:46:52;1.30;;;0.77;;
11957;SDS011;6039;52.576;13.348;2023-02-01T17:51:58;1.10;;;0.80;;
11957;SDS011;6039;52.576;13.348;2023-02-01T17:57:04;3.03;;;1.10;;
11957;SDS011;6039;52.576;13.348;2023-02-01T18:02:20;2.20;;;0.80;;
11957;SDS011;6039;52.576;13.348;2023-02-01T18:07:25;1.93;;;0.83;;
11957;SDS011;6039;52.576;13.348;2023-02-01T18:12:29;1.93;;;0.70;;
11957;SDS011;6039;52.576;13.348;2023-02-01T18:17:38;1.57;;;1.07;;
11957;SDS011;6039;52.576;13.348;2023-02-01T18:22:42;2.80;;;1.10;;
11957;SDS011;6039;52.576;13.348;2023-02-01T18:27:47;1.23;;;1.00;;
11957;SDS011;6039;52.576;13.348;2023-02-01T18:32:55;2.40;;;0.93;;
11957;SDS011;6039;52.576;13.348;2023-02-01T18:37:59;2.03;;;0.90;;
11957;SDS011;6039;52.576;13.348;2023-02-01T18:43:03;6.30;;;1.20;;
11957;SDS011;6039;52.576;13.348;2023-02-01T18:48:11;2.77;;;1.00;;
11957;SDS011;6039;52.576;13.348;2023-02-01T18:53:18;5.43;;;1.00;;
11957;SDS011;6039;52.576;13.348;2023-02-01T18:58:26;4.40;;;1.10;;
11957;SDS011;6039;52.576;13.348;2023-02-01T19:03:33;2.67;;;1.00;;
11957;SDS011;6039;52.576;13.348;2023-02-01T19:08:37;2.23;;;1.03;;
11957;SDS011;6039;52.576;13.348;2023-02-01T19:13:41;2.47;;;0.73;;
11957;SDS011;6039;52.576;13.348;2023-02-01T19:18:51;4.13;;;1.00;;
11957;SDS011;6039;52.576;13.348;2023-02-01T19:23:56;3.23;;;0.80;;
11957;SDS011;6039;52.576;13.348;2023-02-01T19:28:59;4.30;;;1.00;;
11957;SDS011;6039;52.576;13.348;2023-02-01T19:34:06;6.57;;;1.20;;
11957;SDS011;6039;52.576;13.348;2023-02-01T19:39:10;3.73;;;1.20;;
11957;SDS011;6039;52.576;13.348;2023-02-01T19:44:14;3.60;;;1.10;;
11957;SDS011;6039;52.576;13.348;2023-02-01T19:49:21;3.10;;;1.00;;
11957;SDS011;6039;52.576;13.348;2023-02-01T19:54:25;2.23;;;1.00;;
11957;SDS011;6039;52.576;13.348;2023-02-01T19:59:29;5.43;;;1.00;;
11957;SDS011;6039;52.576;13.348;2023-02-01T20:04:35;5.03;;;1.00;;
11957;SDS011;6039;52.576;13.348;2023-02-01T20:09:42;6.23;;;0.80;;
11957;SDS011;6039;52.576;13.348;2023-02-01T20:14:47;4.07;;;1.30;;
11957;SDS011;6039;52.576;13.348;2023-02-01T20:19:53;5.73;;;1.27;;
11957;SDS011;6039;52.576;13.348;2023-02-01T20:24:57;3.57;;;1.40;;
11957;SDS011;6039;52.576;13.348;2023-02-01T20:30:02;3.53;;;0.80;;
11957;SDS011;6039;52.576;13.348;2023-02-01T20:35:10;7.97;;;1.00;;
11957;SDS011;6039;52.576;13.348;2023-02-01T20:40:14;2.00;;;1.07;;
11957;SDS011;6039;52.576;13.348;2023-02-01T20:45:19;3.80;;;1.00;;
11957;SDS011;6039;52.576;13.348;2023-02-01T20:50:27;1.27;;;1.10;;
11957;SDS011;6039;52.576;13.348;2023-02-01T20:55:31;2.20;;;0.97;;
11957;SDS011;6039;52.576;13.348;2023-02-01T21:00:35;2.57;;;1.00;;
11957;SDS011;6039;52.576;13.348;2023-02-01T21:05:43;2.93;;;1.23;;
11957;SDS011;6039;52.576;13.348;2023-02-01T21:10:55;4.43;;;1.00;;
11957;SDS011;6039;52.576;13.348;2023-02-01T21:16:00;5.80;;;1.37;;
11957;SDS011;6039;52.576;13.348;2023-02-01T21:21:09;4.20;;;1.03;;
11957;SDS011;6039;52.576;13.348;2023-02-01T21:26:14;2.50;;;1.00;;
11957;SDS011;6039;52.576;13.348;2023-02-01T21:31:21;6.37;;;1.10;;
11957;SDS011;6039;52.576;13.348;2023-02-01T21:36:28;1.90;;;0.87;;
11957;SDS011;6039;52.576;13.348;2023-02-01T21:41:36;9.17;;;1.20;;
11957;SDS011;6039;52.576;13.348;2023-02-01T21:46:53;2.30;;;1.30;;
11957;SDS011;6039;52.576;13.348;2023-02-01T21:52:00;4.77;;;1.20;;
11957;SDS011;6039;52.576;13.348;2023-02-01T21:57:05;7.80;;;1.13;;
11957;SDS011;6039;52.576;13.348;2023-02-01T22:02:12;4.73;;;0.97;;
11957;SDS011;6039;52.576;13.348;2023-02-01T22:07:19;5.10;;;1.00;;
11957;SDS011;6039;52.576;13.348;2023-02-01T22:12:23;2.50;;;0.80;;
11957;SDS011;6039;52.576;13.348;2023-02-01T22:17:27;4.53;;;0.87;;
11957;SDS011;6039;52.576;13.348;2023-02-01T22:22:34;2.53;;;0.77;;
11957;SDS011;6039;52.576;13.348;2023-02-01T22:27:38;3.03;;;1.20;;
11957;SDS011;6039;52.576;13.348;2023-02-01T22:32:42;6.40;;;1.40;;
11957;SDS011;6039;52.576;13.348;2023-02-01T22:37:49;3.13;;;1.00;;
11957;SDS011;6039;52.576;13.348;2023-02-01T22:42:53;4.23;;;0.97;;
11957;SDS011;6039;52.576;13.348;2023-02-01T22:47:57;3.03;;;1.03;;
11957;SDS011;6039;52.576;13.348;2023-02-01T22:53:04;3.63;;;1.03;;
11957;SDS011;6039;52.576;13.348;2023-02-01T22:58:08;6.83;;;1.17;;
11957;SDS011;6039;52.576;13.348;2023-02-01T23:03:12;5.00;;;1.10;;
11957;SDS011;6039;52.576;13.348;2023-02-01T23:08:19;2.83;;;0.80;;
11957;SDS011;6039;52.576;13.348;2023-02-01T23:13:23;3.80;;;1.33;;
11957;SDS011;6039;52.576;13.348;2023-02-01T23:18:27;2.43;;;1.13;;
11957;SDS011;6039;52.576;13.348;2023-02-01T23:23:34;5.77;;;1.40;;
11957;SDS011;6039;52.576;13.348;2023-02-01T23:28:38;3.10;;;1.27;;
11957;SDS011;6039;52.576;13.348;2023-02-01T23:33:42;2.87;;;0.97;;
11957;SDS011;6039;52.576;13.348;2023-02-01T23:38:51;4.63;;;1.17;;
11957;SDS011;6039;52.576;13.348;2023-02-01T23:43:55;5.07;;;1.10;;
11957;SDS011;6039;52.576;13.348;2023-02-01T23:49:03;4.77;;;1.60;;
11957;SDS011;6039;52.576;13.348;2023-02-01T23:54:10;3.87;;;1.00;;
11957;SDS011;6039;52.576;13.348;2023-02-01T23:59:15;7.43;;;1.13;;
